Time;durP1;ratioP1;P1;durP2;ratioP2;P2;SDS_P1;SDS_P2;PMS_P1;PMS_P2;Temp;Humidity;BMP_temperature;BMP_pressure;BME280_temperature;BME280_humidity;BME280_pressure;Samples;Min_cycle;Max_cycle;Signal;HPM_P1;HPM_P2
2022/06/27 00:02:07;;;;;;;7.80;6.97;;;24.00;78.00;;;;;;5248071;28;20665;-48
2022/06/27 00:04:38;;;;;;;8.23;7.10;;;24.00;78.10;;;;;;5243470;28;20203;-47
2022/06/27 00:07:09;;;;;;;6.73;6.03;;;24.00;78.50;;;;;;5245099;28;20224;-48
2022/06/27 00:09:40;;;;;;;7.73;6.87;;;24.00;78.80;;;;;;5258509;28;20217;-46
2022/06/27 00:12:10;;;;;;;7.80;7.03;;;24.00;79.10;;;;;;5229100;28;20193;-47
2022/06/27 00:14:41;;;;;;;7.33;6.77;;;24.00;79.40;;;;;;5259985;28;20182;-47
2022/06/27 00:17:12;;;;;;;7.63;6.77;;;23.90;79.60;;;;;;5259874;28;20206;-47
2022/06/27 00:19:42;;;;;;;6.00;5.60;;;23.90;80.20;;;;;;5263550;28;20217;-47
2022/06/27 00:22:13;;;;;;;10.47;6.73;;;23.90;80.70;;;;;;5231908;28;20243;-47
2022/06/27 00:24:43;;;;;;;8.30;7.00;;;23.80;81.10;;;;;;5245263;28;20186;-47
2022/06/27 00:27:14;;;;;;;7.60;7.00;;;23.80;81.30;;;;;;5246035;28;20284;-47
2022/06/27 00:29:45;;;;;;;6.93;6.23;;;23.80;81.70;;;;;;5256903;28;20261;-47
2022/06/27 00:32:16;;;;;;;7.33;6.73;;;23.80;82.20;;;;;;5268069;28;20174;-47
2022/06/27 00:34:47;;;;;;;7.03;6.33;;;23.80;82.70;;;;;;5257461;28;20170;-46
2022/06/27 00:37:18;;;;;;;6.80;6.40;;;23.80;83.30;;;;;;5251259;28;20427;-46
2022/06/27 00:39:49;;;;;;;9.20;7.43;;;23.70;83.50;;;;;;5259625;28;20280;-47
2022/06/27 00:42:19;;;;;;;8.10;7.57;;;23.70;84.10;;;;;;5247625;28;20185;-47
2022/06/27 00:44:50;;;;;;;6.83;6.20;;;23.70;84.80;;;;;;5265486;28;20654;-48
2022/06/27 00:47:20;;;;;;;6.90;6.40;;;23.70;85.30;;;;;;5251110;28;20692;-47
2022/06/27 00:49:51;;;;;;;8.30;7.50;;;23.60;85.90;;;;;;5244325;28;20220;-47
2022/06/27 00:52:22;;;;;;;7.03;6.53;;;23.60;86.60;;;;;;5260276;28;20178;-48
2022/06/27 00:54:53;;;;;;;7.63;7.07;;;23.60;87.10;;;;;;5247658;28;20664;-47
2022/06/27 00:57:23;;;;;;;7.53;6.87;;;23.60;87.60;;;;;;5261996;28;20594;-47
2022/06/27 00:59:54;;;;;;;7.17;6.57;;;23.60;88.40;;;;;;5246548;28;20279;-47
2022/06/27 01:02:25;;;;;;;6.60;6.20;;;23.50;89.10;;;;;;5262551;28;20190;-47
2022/06/27 01:04:56;;;;;;;8.50;7.60;;;23.50;90.00;;;;;;5246012;28;20186;-46
2022/06/27 01:07:27;;;;;;;7.83;7.27;;;23.40;90.30;;;;;;5247997;28;20463;-47
2022/06/27 01:09:59;;;;;;;7.67;6.93;;;23.40;90.70;;;;;;5252825;28;20206;-46
2022/06/27 01:12:30;;;;;;;10.40;7.63;;;23.40;91.30;;;;;;5259533;28;20179;-46
2022/06/27 01:15:01;;;;;;;10.50;7.67;;;23.40;91.30;;;;;;5246151;28;20625;-46
2022/06/27 01:17:33;;;;;;;10.87;7.90;;;23.40;91.60;;;;;;5250802;28;20602;-47
2022/06/27 01:20:04;;;;;;;8.80;7.90;;;23.30;91.90;;;;;;5237903;28;20490;-47
2022/06/27 01:22:35;;;;;;;8.57;7.87;;;23.30;92.20;;;;;;5259340;28;20546;-47
2022/06/27 01:25:07;;;;;;;8.03;7.23;;;23.30;92.60;;;;;;5251745;28;20432;-48
2022/06/27 01:27:38;;;;;;;8.47;7.57;;;23.30;93.00;;;;;;5248871;28;20664;-46
2022/06/27 01:30:09;;;;;;;8.87;7.83;;;23.20;93.30;;;;;;5260787;28;20512;-47
2022/06/27 01:32:40;;;;;;;8.57;7.43;;;23.20;93.70;;;;;;5269731;28;20177;-47
2022/06/27 01:35:11;;;;;;;8.50;7.57;;;23.20;94.10;;;;;;5251390;28;20515;-47
2022/06/27 01:37:42;;;;;;;8.37;7.57;;;23.10;94.40;;;;;;5259500;28;20480;-47
2022/06/27 01:40:14;;;;;;;8.23;7.40;;;23.10;94.70;;;;;;5259623;28;20468;-46
2022/06/27 01:42:45;;;;;;;9.33;8.23;;;23.10;94.90;;;;;;5260709;28;20174;-46
2022/06/27 01:45:15;;;;;;;9.80;8.70;;;23.10;95.20;;;;;;5268323;28;20501;-46
2022/06/27 01:47:46;;;;;;;8.87;7.97;;;23.10;95.70;;;;;;5267299;28;20288;-46
2022/06/27 01:50:19;;;;;;;22.90;8.47;;;23.10;95.80;;;;;;5251964;28;20220;-47
2022/06/27 01:52:51;;;;;;;8.80;7.90;;;23.00;96.00;;;;;;5260397;28;20196;-46
2022/06/27 01:55:24;;;;;;;9.70;8.70;;;23.00;96.40;;;;;;5243160;28;20435;-46
2022/06/27 01:57:56;;;;;;;10.80;8.43;;;23.00;96.80;;;;;;5251322;28;20424;-46
2022/06/27 02:00:27;;;;;;;9.50;8.70;;;23.00;97.20;;;;;;5248718;28;20542;-47
2022/06/27 02:02:58;;;;;;;9.83;8.87;;;23.00;97.60;;;;;;5257495;28;20538;-46
2022/06/27 02:05:29;;;;;;;9.67;8.77;;;22.90;97.90;;;;;;5263702;28;20623;-46
2022/06/27 02:08:02;;;;;;;10.23;8.53;;;22.90;98.40;;;;;;5263575;28;20799;-47
2022/06/27 02:10:33;;;;;;;9.30;8.50;;;22.90;99.00;;;;;;5268140;28;20462;-46
2022/06/27 02:13:04;;;;;;;9.30;8.50;;;22.80;99.40;;;;;;5260476;28;20515;-46
2022/06/27 02:15:34;;;;;;;8.63;7.93;;;22.80;99.90;;;;;;5261578;28;20206;-47
2022/06/27 02:18:05;;;;;;;9.70;8.73;;;22.70;99.90;;;;;;5242693;28;20475;-46
2022/06/27 02:20:36;;;;;;;10.07;8.97;;;22.70;99.90;;;;;;5221219;28;20214;-46
2022/06/27 02:23:06;;;;;;;11.00;9.00;;;22.70;99.90;;;;;;5240569;28;20186;-47
2022/06/27 02:25:37;;;;;;;9.40;8.60;;;22.60;99.90;;;;;;5253299;28;20196;-47
2022/06/27 02:28:08;;;;;;;8.87;7.97;;;22.60;99.90;;;;;;5249043;28;20209;-46
2022/06/27 02:30:38;;;;;;;10.43;9.37;;;22.60;99.90;;;;;;5266819;28;20202;-46
2022/06/27 02:33:09;;;;;;;10.37;9.43;;;22.60;99.90;;;;;;5257592;28;20189;-46
2022/06/27 02:35:40;;;;;;;10.83;8.57;;;22.50;99.90;;;;;;5240682;28;20178;-47
2022/06/27 02:38:11;;;;;;;10.47;9.40;;;22.50;99.90;;;;;;5270077;28;20173;-46
2022/06/27 02:40:44;;;;;;;12.93;9.57;;;22.60;99.90;;;;;;5262658;28;20288;-48
2022/06/27 02:43:17;;;;;;;12.63;10.60;;;22.50;99.90;;;;;;5259212;28;20446;-46
2022/06/27 02:45:49;;;;;;;10.33;9.33;;;22.50;99.90;;;;;;5260775;28;20448;-47
2022/06/27 02:48:22;;;;;;;10.93;9.83;;;22.50;99.90;;;;;;5261867;28;20487;-46
2022/06/27 02:50:57;;;;;;;10.50;9.50;;;22.50;99.90;;;;;;5268188;28;20482;-47
2022/06/27 02:53:32;;;;;;;12.63;9.50;;;22.40;99.90;;;;;;5245904;28;20447;-47
2022/06/27 02:56:04;;;;;;;9.90;9.10;;;22.40;99.90;;;;;;5232263;28;20518;-47
2022/06/27 02:58:45;;;;;;;10.23;9.20;;;22.40;99.90;;;;;;5256352;28;20427;-45
2022/06/27 03:01:17;;;;;;;12.03;9.60;;;22.40;99.90;;;;;;5244988;28;20452;-47
2022/06/27 03:03:49;;;;;;;9.53;8.63;;;22.40;99.90;;;;;;5262948;28;20915;-46
2022/06/27 03:06:19;;;;;;;10.20;9.30;;;22.40;99.90;;;;;;5260621;28;20908;-47
2022/06/27 03:08:50;;;;;;;11.27;10.20;;;22.40;99.90;;;;;;5267612;28;20422;-46
2022/06/27 03:11:23;;;;;;;13.63;10.00;;;22.40;99.90;;;;;;5257506;28;20201;-46
2022/06/27 03:13:54;;;;;;;10.97;9.87;;;22.40;99.90;;;;;;5254287;28;20177;-46
2022/06/27 03:16:25;;;;;;;14.50;9.97;;;22.40;99.90;;;;;;5257313;28;20439;-47
2022/06/27 03:18:56;;;;;;;10.33;9.43;;;22.30;99.90;;;;;;5240204;28;20947;-46
2022/06/27 03:21:26;;;;;;;12.77;11.57;;;22.30;99.90;;;;;;5261490;28;20205;-47
2022/06/27 03:23:57;;;;;;;10.87;9.77;;;22.30;99.90;;;;;;5263305;28;20213;-46
2022/06/27 03:26:28;;;;;;;11.00;10.10;;;22.30;99.90;;;;;;5243140;28;20209;-47
2022/06/27 03:28:58;;;;;;;10.43;9.53;;;22.30;99.90;;;;;;5237667;28;20205;-46
2022/06/27 03:31:30;;;;;;;16.93;10.33;;;22.40;99.90;;;;;;5242006;28;20219;-48
2022/06/27 03:34:00;;;;;;;12.70;10.63;;;22.40;99.90;;;;;;5253151;28;20323;-47
2022/06/27 03:36:31;;;;;;;11.30;10.10;;;22.50;99.90;;;;;;5253086;28;20464;-47
2022/06/27 03:39:02;;;;;;;11.20;10.10;;;22.50;99.90;;;;;;5265333;28;20181;-47
2022/06/27 03:41:32;;;;;;;11.20;10.20;;;22.50;99.90;;;;;;5259164;28;20528;-46
2022/06/27 03:44:04;;;;;;;12.70;10.70;;;22.50;99.90;;;;;;5261175;28;20276;-47
2022/06/27 03:46:35;;;;;;;13.80;11.10;;;22.50;99.90;;;;;;5254387;28;20231;-46
2022/06/27 03:51:55;;;;;;;10.47;9.40;;;22.50;99.90;;;;;;5252344;28;20446;-47
2022/06/27 03:54:26;;;;;;;14.27;12.17;;;22.50;99.90;;;;;;5257475;28;20428;-46
2022/06/27 03:56:57;;;;;;;28.63;11.80;;;22.50;99.90;;;;;;5255502;28;20261;-46
2022/06/27 03:59:28;;;;;;;11.43;10.03;;;22.60;99.90;;;;;;5242514;28;20185;-46
2022/06/27 04:01:59;;;;;;;11.40;10.47;;;22.60;99.90;;;;;;5259591;28;20431;-46
2022/06/27 04:04:30;;;;;;;16.40;11.87;;;22.70;99.90;;;;;;5251484;28;20546;-47
2022/06/27 04:07:02;;;;;;;12.53;10.73;;;22.70;99.90;;;;;;5260360;28;20202;-47
2022/06/27 04:09:33;;;;;;;11.33;10.30;;;22.70;99.90;;;;;;5245150;28;20174;-47
2022/06/27 04:12:03;;;;;;;13.30;10.70;;;22.90;99.90;;;;;;5243533;28;20453;-47
2022/06/27 04:14:34;;;;;;;12.93;11.30;;;22.90;99.90;;;;;;5269713;28;20189;-47
2022/06/27 04:17:05;;;;;;;40.73;11.77;;;22.90;99.90;;;;;;5235131;28;20177;-47
2022/06/27 04:19:36;;;;;;;12.70;10.63;;;23.00;99.90;;;;;;5256871;28;20192;-48
2022/06/27 04:22:08;;;;;;;10.53;9.53;;;23.10;99.90;;;;;;5257158;28;20197;-47
2022/06/27 04:24:39;;;;;;;12.60;10.50;;;23.30;99.90;;;;;;5260581;28;20451;-47
2022/06/27 04:27:09;;;;;;;13.93;10.77;;;23.50;99.90;;;;;;5260489;28;20462;-47
2022/06/27 04:29:40;;;;;;;17.03;10.90;;;23.60;99.90;;;;;;5265635;28;20654;-47
2022/06/27 04:32:11;;;;;;;13.00;10.60;;;23.80;99.90;;;;;;5260936;28;20189;-47
2022/06/27 04:34:43;;;;;;;14.53;10.83;;;24.00;99.90;;;;;;5244607;28;20174;-49
2022/06/27 04:37:15;;;;;;;11.97;10.50;;;24.30;99.90;;;;;;5244767;28;20190;-47
2022/06/27 04:39:46;;;;;;;10.60;9.60;;;24.50;99.90;;;;;;5237316;28;20529;-47
2022/06/27 04:42:18;;;;;;;16.47;9.80;;;24.70;99.90;;;;;;5242080;28;20447;-47
2022/06/27 04:44:48;;;;;;;11.50;10.00;;;25.10;99.90;;;;;;5262558;28;20742;-47
2022/06/27 04:47:20;;;;;;;11.03;9.53;;;25.50;98.30;;;;;;5261819;28;20463;-47
2022/06/27 04:49:50;;;;;;;10.73;9.50;;;25.80;97.00;;;;;;5259653;28;20239;-48
2022/06/27 04:52:21;;;;;;;17.63;10.07;;;26.20;94.80;;;;;;5245093;28;20440;-47
2022/06/27 04:54:53;;;;;;;9.80;8.80;;;26.60;92.80;;;;;;5252156;28;20178;-47
2022/06/27 04:57:24;;;;;;;8.97;8.10;;;26.90;91.60;;;;;;5255314;28;20486;-47
2022/06/27 04:59:55;;;;;;;8.83;7.63;;;27.20;90.10;;;;;;5253902;28;20463;-47
2022/06/27 05:02:26;;;;;;;9.10;8.20;;;27.70;86.10;;;;;;5249080;28;20238;-47
2022/06/27 05:04:56;;;;;;;9.23;8.13;;;27.90;82.60;;;;;;5236877;28;20177;-48
2022/06/27 05:07:28;;;;;;;13.93;10.00;;;28.10;79.10;;;;;;5236639;28;20228;-47
2022/06/27 05:09:59;;;;;;;9.53;8.73;;;28.50;76.00;;;;;;5247141;28;20267;-47
2022/06/27 05:12:30;;;;;;;8.83;7.80;;;29.20;71.90;;;;;;5237762;28;20435;-47
2022/06/27 05:15:00;;;;;;;8.43;7.57;;;29.90;67.70;;;;;;5256113;28;20174;-47
2022/06/27 05:17:31;;;;;;;7.90;7.30;;;30.60;63.30;;;;;;5256592;28;20201;-48
2022/06/27 05:20:02;;;;;;;8.23;7.33;;;31.30;59.10;;;;;;5258921;28;20296;-47
2022/06/27 05:22:33;;;;;;;9.00;8.10;;;32.00;56.20;;;;;;5240926;28;20192;-45
2022/06/27 05:25:04;;;;;;;8.67;7.97;;;32.80;53.10;;;;;;5264139;28;20185;-47
2022/06/27 05:27:35;;;;;;;9.73;8.00;;;33.50;50.80;;;;;;5241065;28;20592;-47
2022/06/27 05:30:06;;;;;;;7.33;6.73;;;34.50;48.00;;;;;;5243217;28;20209;-48
2022/06/27 05:32:37;;;;;;;7.60;6.90;;;35.20;45.70;;;;;;5263193;28;20184;-48
2022/06/27 05:35:08;;;;;;;7.13;6.53;;;35.70;45.20;;;;;;5256987;28;20537;-48
2022/06/27 05:37:40;;;;;;;8.18;7.60;;;36.20;42.80;;;;;;5261819;28;20189;-47
2022/06/27 05:40:11;;;;;;;7.22;6.63;;;37.00;41.20;;;;;;5242310;28;20196;-48
2022/06/27 05:42:41;;;;;;;8.10;7.28;;;37.50;39.90;;;;;;5265161;28;20196;-48
2022/06/27 05:45:12;;;;;;;7.68;6.97;;;37.90;38.40;;;;;;5233506;28;20185;-48
2022/06/27 05:47:43;;;;;;;7.18;6.63;;;38.10;37.60;;;;;;5258410;28;20223;-48
2022/06/27 05:50:14;;;;;;;10.15;7.00;;;38.10;37.60;;;;;;5263683;28;20197;-48
2022/06/27 05:52:45;;;;;;;11.82;8.13;;;37.70;37.80;;;;;;5226767;28;20205;-47
2022/06/27 05:55:16;;;;;;;7.85;7.10;;;37.50;38.00;;;;;;5254671;28;20268;-47
2022/06/27 05:57:47;;;;;;;8.82;7.78;;;37.70;37.60;;;;;;5245748;28;20193;-48
2022/06/27 06:00:18;;;;;;;9.20;6.95;;;37.50;37.70;;;;;;5263225;28;20197;-47
2022/06/27 06:02:49;;;;;;;8.32;7.45;;;37.50;38.10;;;;;;5255827;28;20193;-47
2022/06/27 06:05:21;;;;;;;8.15;7.35;;;37.70;37.50;;;;;;5266612;28;20263;-47
2022/06/27 06:07:52;;;;;;;8.25;7.18;;;37.80;37.50;;;;;;5260704;28;20340;-48
2022/06/27 06:10:23;;;;;;;7.63;6.93;;;37.90;36.60;;;;;;5243509;28;20222;-47
2022/06/27 06:12:54;;;;;;;7.00;6.50;;;37.80;36.70;;;;;;5264245;28;20182;-48
2022/06/27 06:15:25;;;;;;;8.30;7.60;;;37.30;37.70;;;;;;5249853;28;20246;-48
2022/06/27 06:17:56;;;;;;;7.68;7.18;;;38.10;37.20;;;;;;5232578;28;20261;-48
2022/06/27 06:20:28;;;;;;;10.73;7.78;;;38.50;36.10;;;;;;5246607;28;20204;-47
2022/06/27 06:23:00;;;;;;;7.75;7.15;;;38.70;35.50;;;;;;5248114;28;20196;-48
2022/06/27 06:25:30;;;;;;;9.88;6.85;;;38.50;35.40;;;;;;5244389;28;20212;-48
2022/06/27 06:28:02;;;;;;;8.82;6.57;;;38.60;35.70;;;;;;5257845;28;21018;-48
2022/06/27 06:30:34;;;;;;;6.60;6.10;;;39.30;35.00;;;;;;5260911;28;20204;-48
2022/06/27 06:33:05;;;;;;;7.22;6.53;;;40.10;34.10;;;;;;5255673;28;20228;-48
2022/06/27 06:35:36;;;;;;;6.60;6.00;;;40.90;32.40;;;;;;5246647;28;20188;-49
2022/06/27 06:38:07;;;;;;;6.30;5.95;;;41.80;31.90;;;;;;5246701;28;20216;-47
2022/06/27 06:40:38;;;;;;;14.15;6.65;;;41.50;30.70;;;;;;5260456;28;20277;-48
2022/06/27 06:43:09;;;;;;;9.18;6.88;;;41.60;30.80;;;;;;5261077;28;20181;-48
2022/06/27 06:45:40;;;;;;;8.98;6.32;;;41.20;30.70;;;;;;5245230;28;20181;-47
2022/06/27 06:48:13;;;;;;;7.40;6.05;;;41.10;31.60;;;;;;5265986;28;20208;-49
2022/06/27 06:50:43;;;;;;;6.50;6.10;;;41.00;30.80;;;;;;5248054;28;20207;-48
2022/06/27 06:53:14;;;;;;;5.90;5.40;;;41.40;30.80;;;;;;5255434;28;20645;-48
2022/06/27 06:55:44;;;;;;;5.57;5.18;;;42.00;30.40;;;;;;5264486;28;20223;-47
2022/06/27 06:58:15;;;;;;;5.03;4.60;;;43.30;29.60;;;;;;5255501;28;20173;-48
2022/06/27 07:00:47;;;;;;;7.82;6.22;;;44.10;28.70;;;;;;5238238;28;20251;-48
2022/06/27 07:03:20;;;;;;;4.22;4.00;;;44.80;27.50;;;;;;5250427;28;20653;-49
2022/06/27 07:05:51;;;;;;;5.15;4.65;;;45.20;27.50;;;;;;5241034;28;20522;-48
2022/06/27 07:08:21;;;;;;;6.20;5.80;;;45.90;27.00;;;;;;5243118;28;20267;-48
2022/06/27 07:10:52;;;;;;;18.05;4.95;;;46.10;26.20;;;;;;5260321;28;20277;-48
2022/06/27 07:13:23;;;;;;;5.70;5.13;;;46.20;26.30;;;;;;5260001;28;20178;-49
2022/06/27 07:15:53;;;;;;;9.30;4.65;;;46.20;25.60;;;;;;5234972;28;20251;-54
2022/06/27 07:18:25;;;;;;;5.43;4.93;;;46.40;25.90;;;;;;5255308;28;20681;-48
2022/06/27 07:20:56;;;;;;;9.65;5.60;;;47.10;25.40;;;;;;5242583;28;20307;-48
2022/06/27 07:23:26;;;;;;;5.55;4.63;;;46.20;25.10;;;;;;5257574;28;20256;-47
2022/06/27 07:25:57;;;;;;;8.70;4.78;;;46.40;25.50;;;;;;5258177;28;20181;-49
2022/06/27 07:28:29;;;;;;;6.88;4.20;;;46.40;25.70;;;;;;5251544;28;20227;-48
2022/06/27 07:31:01;;;;;;;13.25;5.25;;;46.30;25.40;;;;;;5234769;28;20703;-47
2022/06/27 07:33:32;;;;;;;5.80;4.45;;;46.40;24.90;;;;;;5263946;28;20181;-47
2022/06/27 07:36:08;;;;;;;4.93;4.43;;;45.70;25.40;;;;;;5240639;28;20233;-48
2022/06/27 07:38:39;;;;;;;8.68;4.65;;;45.60;25.60;;;;;;5250355;28;20173;-48
2022/06/27 07:41:10;;;;;;;5.68;4.68;;;45.50;25.50;;;;;;5255570;28;20214;-49
2022/06/27 07:43:44;;;;;;;4.32;4.15;;;46.10;25.40;;;;;;5246776;28;20180;-48
2022/06/27 07:46:17;;;;;;;4.90;4.60;;;46.40;24.80;;;;;;5257172;28;20176;-48
2022/06/27 07:48:52;;;;;;;7.82;5.05;;;46.10;24.70;;;;;;5248194;28;20263;-48
2022/06/27 07:51:23;;;;;;;4.72;4.25;;;44.90;25.40;;;;;;5254019;28;20241;-49
2022/06/27 07:53:53;;;;;;;9.20;4.25;;;45.20;26.00;;;;;;5257579;28;20184;-49
2022/06/27 07:56:25;;;;;;;4.82;4.45;;;45.70;25.70;;;;;;5241902;28;20194;-49
2022/06/27 07:58:56;;;;;;;5.18;4.88;;;44.80;25.60;;;;;;5263317;28;20633;-48
2022/06/27 08:01:28;;;;;;;5.53;5.15;;;43.80;26.60;;;;;;5244380;28;20196;-48
2022/06/27 08:03:58;;;;;;;4.80;4.40;;;43.30;26.60;;;;;;5259989;28;20170;-48
2022/06/27 08:06:29;;;;;;;4.03;3.83;;;42.70;26.20;;;;;;5237857;28;20335;-48
2022/06/27 08:09:03;;;;;;;4.80;4.25;;;42.20;27.10;;;;;;5263201;28;20189;-48
2022/06/27 08:11:40;;;;;;;4.47;4.18;;;42.40;27.00;;;;;;5250373;28;20562;-49
2022/06/27 08:14:17;;;;;;;3.35;3.15;;;43.20;26.40;;;;;;5247508;28;20177;-47
2022/06/27 08:16:51;;;;;;;3.05;2.95;;;44.20;25.30;;;;;;5263352;28;20660;-48
2022/06/27 08:19:23;;;;;;;3.33;3.22;;;45.00;24.70;;;;;;5240478;28;20194;-48
2022/06/27 08:21:54;;;;;;;2.90;2.55;;;45.70;23.60;;;;;;5244797;28;20570;-48
2022/06/27 08:24:24;;;;;;;3.03;2.88;;;45.90;23.50;;;;;;5245928;28;20211;-47
2022/06/27 08:26:55;;;;;;;4.13;3.22;;;45.70;22.90;;;;;;5245512;28;20299;-48
2022/06/27 08:29:27;;;;;;;2.80;2.60;;;45.00;23.70;;;;;;5259655;28;20192;-47
2022/06/27 08:31:58;;;;;;;3.58;3.47;;;45.20;23.90;;;;;;5244371;28;20620;-48
2022/06/27 08:34:30;;;;;;;3.08;2.88;;;44.00;24.00;;;;;;5249272;28;20177;-47
2022/06/27 08:37:01;;;;;;;2.47;2.35;;;42.20;25.60;;;;;;5250576;28;20275;-47
2022/06/27 08:39:32;;;;;;;3.53;3.33;;;41.80;26.40;;;;;;5258309;28;20745;-48
2022/06/27 08:42:03;;;;;;;4.22;3.40;;;41.90;26.20;;;;;;5262661;28;20185;-48
2022/06/27 08:44:37;;;;;;;3.42;2.85;;;42.50;25.80;;;;;;5243356;28;20185;-48
2022/06/27 08:47:11;;;;;;;4.43;3.25;;;43.20;25.90;;;;;;5259366;28;20208;-48
2022/06/27 08:49:43;;;;;;;9.75;3.20;;;43.90;25.30;;;;;;5236341;28;20185;-48
2022/06/27 08:52:14;;;;;;;4.68;3.63;;;42.90;25.60;;;;;;5252080;28;21308;-48
2022/06/27 08:54:45;;;;;;;5.03;3.17;;;41.10;27.20;;;;;;5244121;28;20190;-47
2022/06/27 08:57:18;;;;;;;8.23;3.53;;;39.10;29.10;;;;;;5243013;28;20181;-47
2022/06/27 08:59:54;;;;;;;3.35;3.15;;;37.20;30.40;;;;;;5256466;28;20204;-48
2022/06/27 09:02:25;;;;;;;4.93;3.10;;;35.70;33.30;;;;;;5254780;28;20177;-48
2022/06/27 09:04:59;;;;;;;3.28;3.17;;;34.60;35.80;;;;;;5261306;28;20204;-48
2022/06/27 09:07:50;;;;;;;4.00;3.72;;;34.10;36.20;;;;;;5258368;28;20214;-48
2022/06/27 09:10:24;;;;;;;3.80;3.60;;;33.70;37.90;;;;;;5259768;28;20310;-48
2022/06/27 09:13:03;;;;;;;2.95;2.85;;;33.60;38.20;;;;;;5238095;28;20184;-48
2022/06/27 09:16:00;;;;;;;2.42;2.33;;;33.80;37.50;;;;;;5231114;28;20211;-47
2022/06/27 09:18:32;;;;;;;3.20;2.80;;;33.90;37.10;;;;;;5262250;28;20565;-48
2022/06/27 09:21:12;;;;;;;6.18;2.80;;;34.20;36.20;;;;;;5268252;22;20240;-51
2022/06/27 09:23:49;;;;;;;3.58;2.88;;;34.20;35.80;;;;;;5241565;28;20567;-51
2022/06/27 09:26:22;;;;;;;4.30;3.10;;;34.00;36.00;;;;;;5242205;28;20625;-49
2022/06/27 09:29:04;;;;;;;3.73;3.10;;;34.00;37.20;;;;;;5242972;28;20178;-50
2022/06/27 09:31:42;;;;;;;2.90;2.70;;;33.60;37.80;;;;;;5237534;28;20206;-50
2022/06/27 09:34:16;;;;;;;3.03;2.92;;;33.70;38.40;;;;;;5215692;28;20348;-50
2022/06/27 09:36:52;;;;;;;2.60;2.50;;;33.80;37.30;;;;;;5231667;28;20559;-51
2022/06/27 09:39:34;;;;;;;5.35;2.92;;;34.00;37.40;;;;;;5235724;28;20193;-52
2022/06/27 09:42:11;;;;;;;10.47;3.13;;;34.10;37.20;;;;;;5231187;28;20255;-51
2022/06/27 09:44:44;;;;;;;2.75;2.63;;;34.10;36.30;;;;;;5233796;28;20194;-51
2022/06/27 09:47:25;;;;;;;3.40;2.67;;;34.10;35.50;;;;;;5226388;28;20659;-51
2022/06/27 09:49:59;;;;;;;2.92;2.72;;;34.10;35.50;;;;;;5236411;28;20395;-53
2022/06/27 09:52:30;;;;;;;4.25;2.97;;;34.00;35.40;;;;;;5231536;28;20173;-51
2022/06/27 09:55:03;;;;;;;3.10;2.43;;;33.80;35.40;;;;;;5233396;28;20182;-53
2022/06/27 09:57:34;;;;;;;2.25;2.15;;;33.70;34.50;;;;;;5239753;28;20178;-51
2022/06/27 10:00:06;;;;;;;3.00;2.77;;;33.80;35.30;;;;;;5231533;28;20205;-50
2022/06/27 10:02:37;;;;;;;2.70;2.60;;;33.80;35.10;;;;;;5245521;28;20187;-52
2022/06/27 10:05:10;;;;;;;3.35;3.00;;;33.70;35.40;;;;;;5237832;28;20178;-50
2022/06/27 10:07:43;;;;;;;3.23;2.50;;;33.40;36.00;;;;;;5228869;28;20198;-50
2022/06/27 10:10:13;;;;;;;2.73;2.53;;;33.20;36.30;;;;;;5236173;28;20198;-49
2022/06/27 10:12:57;;;;;;;3.17;2.80;;;33.00;36.70;;;;;;5240311;28;20189;-50
2022/06/27 10:15:33;;;;;;;4.87;2.97;;;33.00;36.40;;;;;;5237180;28;20173;-51
2022/06/27 10:18:04;;;;;;;3.03;2.67;;;33.00;36.30;;;;;;5252226;28;20726;-49
2022/06/27 10:20:39;;;;;;;3.10;2.67;;;32.90;36.70;;;;;;5235316;28;20283;-51
2022/06/27 10:23:13;;;;;;;3.23;2.87;;;32.80;36.70;;;;;;5232147;28;20649;-51
2022/06/27 10:25:45;;;;;;;2.53;2.33;;;32.90;36.90;;;;;;5233290;28;20184;-49
2022/06/27 10:28:17;;;;;;;2.80;2.60;;;33.00;36.50;;;;;;5237153;28;20217;-50
2022/06/27 10:30:48;;;;;;;2.50;2.40;;;32.90;36.70;;;;;;5243978;28;20238;-50
2022/06/27 10:33:28;;;;;;;6.20;2.23;;;33.10;36.20;;;;;;5235790;28;20685;-50
2022/06/27 10:38:44;;;;;;;6.50;2.43;;;33.20;36.20;;;;;;5233858;28;20194;-51
2022/06/27 10:41:17;;;;;;;2.57;2.47;;;33.30;36.40;;;;;;5229191;28;20197;-51
2022/06/27 10:43:50;;;;;;;4.97;2.97;;;33.40;36.50;;;;;;5235775;28;20278;-52
2022/06/27 10:46:20;;;;;;;2.63;2.53;;;33.50;35.40;;;;;;5228206;28;20251;-50
2022/06/27 10:48:55;;;;;;;2.50;2.30;;;33.40;35.00;;;;;;5235286;28;20645;-50
2022/06/27 10:51:30;;;;;;;3.10;2.70;;;33.50;34.80;;;;;;5231886;28;20232;-49
2022/06/27 10:54:06;;;;;;;3.90;2.07;;;33.60;34.60;;;;;;5239356;28;20672;-49
2022/06/27 10:56:44;;;;;;;2.33;2.17;;;33.60;34.60;;;;;;5235302;28;20189;-53
2022/06/27 10:59:14;;;;;;;6.35;3.47;;;33.70;34.70;;;;;;5238226;28;20182;-51
2022/06/27 11:01:52;;;;;;;6.63;4.70;;;33.80;34.30;;;;;;5236720;28;20216;-51
2022/06/27 11:04:30;;;;;;;4.97;2.80;;;34.00;34.70;;;;;;5240650;28;20193;-49
2022/06/27 11:07:06;;;;;;;2.50;2.15;;;34.10;34.70;;;;;;5232164;28;20199;-52
2022/06/27 11:09:47;;;;;;;2.63;2.42;;;34.10;34.10;;;;;;5232457;28;20614;-51
2022/06/27 11:12:20;;;;;;;2.00;1.90;;;34.20;34.00;;;;;;5232715;28;20545;-52
2022/06/27 11:15:00;;;;;;;2.85;2.67;;;34.30;34.10;;;;;;5228321;28;20209;-51
2022/06/27 11:17:40;;;;;;;2.58;2.40;;;34.30;34.00;;;;;;5237334;28;20181;-51
2022/06/27 11:20:15;;;;;;;5.10;2.63;;;34.40;33.80;;;;;;5236023;28;20209;-52
2022/06/27 11:22:49;;;;;;;4.03;2.70;;;34.40;33.80;;;;;;5229415;28;20189;-49
2022/06/27 11:25:21;;;;;;;2.90;2.80;;;34.50;34.60;;;;;;5236186;28;20185;-52
2022/06/27 11:31:57;;;;;;;2.95;2.63;;;34.50;34.00;;;;;;5245022;28;20213;-50
2022/06/27 11:33:41;;;;;;;3.55;3.25;;;34.60;33.60;;;;;;5232894;28;20269;-51
2022/06/27 11:36:13;;;;;;;2.72;2.50;;;34.80;33.60;;;;;;5216109;28;21860;-52
2022/06/27 11:38:45;;;;;;;3.42;2.45;;;34.80;33.30;;;;;;5239695;28;20211;-50
2022/06/27 11:41:26;;;;;;;2.30;2.10;;;34.80;33.40;;;;;;5225178;28;20201;-50
2022/06/27 11:44:04;;;;;;;4.85;2.95;;;34.90;33.80;;;;;;5230533;28;20228;-49
2022/06/27 11:46:39;;;;;;;4.32;3.08;;;34.90;33.10;;;;;;5237634;28;20212;-49
2022/06/27 11:49:12;;;;;;;8.25;2.53;;;35.00;33.50;;;;;;5211613;28;20177;-50
2022/06/27 11:51:47;;;;;;;2.97;2.78;;;35.10;32.70;;;;;;5210679;28;20214;-50
2022/06/27 11:54:20;;;;;;;2.28;2.28;;;35.30;33.30;;;;;;5237370;28;20166;-52
2022/06/27 11:56:53;;;;;;;5.00;2.72;;;35.40;32.30;;;;;;5230571;28;20214;-49
2022/06/27 11:59:23;;;;;;;2.58;2.47;;;35.50;31.70;;;;;;5233428;28;20277;-50
2022/06/27 12:02:00;;;;;;;2.30;2.10;;;35.40;31.50;;;;;;5234444;28;20289;-51
2022/06/27 12:04:33;;;;;;;2.33;2.22;;;35.50;31.40;;;;;;5238607;28;20943;-51
2022/06/27 12:07:04;;;;;;;2.40;2.30;;;35.30;31.20;;;;;;5230485;28;20403;-51
2022/06/27 12:09:51;;;;;;;2.65;2.55;;;35.00;31.20;;;;;;5241127;28;20718;-51
2022/06/27 12:12:25;;;;;;;7.35;2.53;;;34.90;32.00;;;;;;5239664;28;20268;-49
2022/06/27 12:14:56;;;;;;;3.00;2.20;;;34.90;32.10;;;;;;5233806;28;20263;-50
2022/06/27 12:17:38;;;;;;;2.85;2.15;;;35.00;32.10;;;;;;5240787;28;20231;-49
2022/06/27 12:20:09;;;;;;;9.68;4.68;;;35.30;31.50;;;;;;5238054;28;20251;-50
2022/06/27 12:22:40;;;;;;;4.45;3.00;;;35.50;31.80;;;;;;5229351;28;20704;-49
2022/06/27 12:25:11;;;;;;;2.95;2.75;;;35.40;31.30;;;;;;5216152;28;20272;-50
2022/06/27 12:27:41;;;;;;;3.67;3.47;;;35.50;31.50;;;;;;5241550;28;20570;-49
2022/06/27 12:30:13;;;;;;;2.47;2.28;;;35.70;31.10;;;;;;5234296;28;20208;-52
2022/06/27 12:32:44;;;;;;;3.25;2.70;;;35.60;31.20;;;;;;5234399;28;20542;-52
2022/06/27 12:35:15;;;;;;;3.08;2.58;;;35.60;31.00;;;;;;5238059;28;20205;-56
2022/06/27 12:37:46;;;;;;;4.18;2.22;;;35.50;30.90;;;;;;5239929;28;20194;-50
2022/06/27 12:40:16;;;;;;;3.00;2.65;;;35.40;31.30;;;;;;5243792;28;20206;-50
2022/06/27 12:42:47;;;;;;;5.47;2.30;;;35.40;31.30;;;;;;5235875;28;20189;-48
2022/06/27 12:45:18;;;;;;;2.90;2.80;;;35.50;31.40;;;;;;5245282;28;20173;-50
2022/06/27 12:47:48;;;;;;;2.92;2.60;;;35.70;31.60;;;;;;5246289;28;20205;-50
2022/06/27 12:50:19;;;;;;;3.80;3.17;;;35.70;31.00;;;;;;5242700;28;20213;-51
2022/06/27 12:52:49;;;;;;;2.42;2.22;;;35.60;31.00;;;;;;5243127;28;20292;-50
2022/06/27 12:55:20;;;;;;;3.15;2.85;;;35.40;31.00;;;;;;5247886;28;20219;-51
2022/06/27 12:57:51;;;;;;;2.15;2.00;;;35.10;31.00;;;;;;5239034;28;20646;-50
2022/06/27 13:00:22;;;;;;;12.43;2.60;;;35.00;31.10;;;;;;5235005;28;20289;-50
2022/06/27 13:02:52;;;;;;;1.92;1.83;;;34.90;31.10;;;;;;5236420;28;20216;-50
2022/06/27 13:05:23;;;;;;;2.38;2.25;;;35.00;31.20;;;;;;5234812;28;20179;-50
2022/06/27 13:07:54;;;;;;;5.10;2.45;;;35.20;31.60;;;;;;5235477;28;20237;-51
2022/06/27 13:10:24;;;;;;;2.97;2.33;;;35.10;31.20;;;;;;5237781;28;20237;-50
2022/06/27 13:12:55;;;;;;;2.72;2.63;;;34.80;31.10;;;;;;5236924;28;20190;-50
2022/06/27 13:15:25;;;;;;;2.20;2.20;;;34.70;31.60;;;;;;5242197;28;20186;-50
2022/06/27 13:17:56;;;;;;;2.90;2.70;;;34.50;31.70;;;;;;5234732;28;20197;-49